Time;durP1;ratioP1;P1;durP2;ratioP2;P2;SDS_P1;SDS_P2;PMS_P1;PMS_P2;Temp;Humidity;BMP_temperature;BMP_pressure;BME280_temperature;BME280_humidity;BME280_pressure;Samples;Min_cycle;Max_cycle;Signal;HPM_P1;HPM_P2
2023/01/03 00:01:23;;;;;;;16.23;8.25;;;9.30;91.70;;;;;;5134999;28;20027;-76
2023/01/03 00:03:51;;;;;;;18.13;8.15;;;9.30;91.70;;;;;;5135054;28;20015;-76
2023/01/03 00:06:29;;;;;;;15.65;7.82;;;9.30;91.80;;;;;;5134865;28;20015;-76
2023/01/03 00:08:57;;;;;;;17.98;8.30;;;9.20;91.80;;;;;;5133743;28;20439;-76
2023/01/03 00:14:26;;;;;;;12.90;7.00;;;9.20;91.90;;;;;;5100432;28;20023;-76
2023/01/03 00:16:55;;;;;;;13.30;7.63;;;9.10;92.00;;;;;;5134622;28;20027;-76
2023/01/03 00:19:21;;;;;;;14.35;7.53;;;9.10;92.00;;;;;;5134529;28;20416;-76
2023/01/03 00:21:47;;;;;;;15.13;7.47;;;9.10;92.00;;;;;;5133610;28;20087;-76
2023/01/03 00:24:13;;;;;;;12.77;6.57;;;9.00;92.10;;;;;;5134321;28;20051;-76
2023/01/03 00:26:41;;;;;;;14.98;7.43;;;8.90;92.10;;;;;;5134598;28;20023;-76
2023/01/03 00:29:08;;;;;;;11.70;6.72;;;8.90;92.10;;;;;;5134533;28;20043;-76
2023/01/03 00:31:35;;;;;;;17.50;6.97;;;8.90;92.10;;;;;;5134397;28;20020;-76
2023/01/03 00:34:00;;;;;;;12.82;6.45;;;8.90;92.00;;;;;;5134362;28;20032;-77
2023/01/03 00:36:26;;;;;;;12.65;5.97;;;8.90;91.80;;;;;;5133974;28;20040;-76
2023/01/03 00:38:52;;;;;;;13.75;6.38;;;8.90;91.70;;;;;;5133299;28;20027;-76
2023/01/03 00:41:19;;;;;;;14.25;6.60;;;8.80;91.70;;;;;;5134435;28;20020;-76
2023/01/03 00:43:46;;;;;;;13.43;5.95;;;8.80;91.60;;;;;;5134227;28;20022;-76
2023/01/03 00:46:13;;;;;;;13.02;6.28;;;8.70;91.50;;;;;;5134238;28;20079;-76
2023/01/03 00:48:39;;;;;;;11.55;6.53;;;8.70;91.40;;;;;;5134219;28;20020;-76
2023/01/03 00:51:12;;;;;;;11.40;5.88;;;8.60;91.30;;;;;;5134133;28;20027;-76
2023/01/03 00:53:39;;;;;;;15.80;5.82;;;8.60;91.20;;;;;;5133317;28;20027;-76
2023/01/03 00:56:08;;;;;;;11.57;5.43;;;8.50;90.90;;;;;;5133055;28;20028;-76
2023/01/03 00:58:34;;;;;;;8.85;5.25;;;8.40;91.10;;;;;;5133983;28;20084;-76
2023/01/03 01:01:16;;;;;;;9.32;5.22;;;8.40;91.10;;;;;;5133121;28;20027;-76
2023/01/03 01:03:48;;;;;;;12.52;5.10;;;8.40;91.00;;;;;;5134048;28;20035;-76
2023/01/03 01:06:21;;;;;;;12.32;5.30;;;8.30;90.80;;;;;;5134054;28;20039;-76
2023/01/03 01:08:47;;;;;;;7.55;4.50;;;8.20;90.70;;;;;;5132879;28;20032;-76
2023/01/03 01:11:14;;;;;;;8.82;4.50;;;8.10;90.60;;;;;;5133944;28;20028;-76
2023/01/03 01:13:41;;;;;;;12.65;5.22;;;8.00;90.60;;;;;;5133986;28;20029;-76
2023/01/03 01:16:15;;;;;;;10.30;5.45;;;7.90;90.50;;;;;;5133880;28;20031;-76
2023/01/03 01:18:43;;;;;;;12.95;5.43;;;7.90;90.70;;;;;;5133828;28;20026;-76
2023/01/03 01:21:16;;;;;;;8.43;4.45;;;7.80;90.80;;;;;;5133640;28;20027;-77
2023/01/03 01:23:42;;;;;;;9.73;4.85;;;7.80;90.70;;;;;;5133902;28;20024;-76
2023/01/03 01:26:11;;;;;;;9.40;4.88;;;7.70;90.80;;;;;;5132624;28;20065;-76
2023/01/03 01:28:36;;;;;;;10.98;5.28;;;7.70;90.90;;;;;;5133768;28;20043;-76
2023/01/03 01:31:04;;;;;;;8.05;4.57;;;7.60;90.90;;;;;;5133722;28;20032;-76
2023/01/03 01:33:32;;;;;;;9.68;5.13;;;7.60;91.00;;;;;;5115707;28;20095;-76
2023/01/03 01:36:03;;;;;;;9.02;4.88;;;7.60;91.00;;;;;;5133699;28;20030;-76
2023/01/03 01:38:29;;;;;;;15.43;5.88;;;7.60;91.00;;;;;;5133427;28;20027;-76
2023/01/03 01:40:54;;;;;;;8.93;5.00;;;7.60;91.00;;;;;;5133617;28;20057;-76
2023/01/03 01:46:27;;;;;;;11.00;5.20;;;7.60;91.10;;;;;;5133848;28;20053;-76
2023/01/03 01:49:02;;;;;;;8.73;5.15;;;7.70;91.20;;;;;;5136894;28;20023;-76
2023/01/03 01:51:32;;;;;;;8.20;4.78;;;7.70;91.30;;;;;;5137552;28;20023;-76
2023/01/03 01:54:00;;;;;;;10.70;5.40;;;7.80;91.30;;;;;;5137240;28;20023;-76
2023/01/03 01:56:32;;;;;;;7.90;4.68;;;7.70;91.20;;;;;;5137424;28;20024;-76
2023/01/03 01:58:58;;;;;;;10.40;5.13;;;7.70;90.90;;;;;;5137345;28;20478;-77
2023/01/03 02:01:24;;;;;;;8.95;4.75;;;7.60;90.80;;;;;;5137300;28;20024;-76
2023/01/03 02:04:08;;;;;;;12.65;5.65;;;7.60;90.80;;;;;;5136256;28;20087;-76
2023/01/03 02:06:34;;;;;;;13.52;5.55;;;7.60;90.80;;;;;;5137277;28;20182;-76
2023/01/03 02:09:00;;;;;;;8.80;4.55;;;7.50;90.90;;;;;;5137264;28;20028;-76
2023/01/03 02:15:23;;;;;;;8.95;4.70;;;7.40;90.60;;;;;;5102284;28;20037;-76
2023/01/03 02:18:24;;;;;;;7.57;4.07;;;7.20;90.50;;;;;;5137054;28;20046;-76
2023/01/03 02:20:58;;;;;;;9.88;4.65;;;7.10;90.70;;;;;;5137008;28;20027;-76
2023/01/03 02:23:53;;;;;;;10.25;4.85;;;7.00;90.70;;;;;;5136869;28;20034;-76
2023/01/03 02:26:40;;;;;;;12.63;4.97;;;7.00;91.00;;;;;;5136923;28;20485;-76
2023/01/03 02:29:24;;;;;;;8.40;4.60;;;6.90;91.00;;;;;;5136783;28;20032;-76
2023/01/03 02:32:32;;;;;;;15.18;5.40;;;6.80;91.30;;;;;;5135767;28;20048;-76
2023/01/03 02:35:36;;;;;;;9.20;4.28;;;6.80;91.30;;;;;;5136703;28;20042;-76
2023/01/03 02:38:08;;;;;;;9.00;4.47;;;6.80;91.30;;;;;;5136091;28;20091;-76
2023/01/03 02:40:36;;;;;;;10.20;5.03;;;6.80;91.30;;;;;;5136489;28;20024;-76
2023/01/03 02:43:12;;;;;;;9.38;5.07;;;6.80;91.40;;;;;;5135590;28;20035;-76
2023/01/03 02:46:02;;;;;;;11.07;4.70;;;6.90;91.30;;;;;;5136624;28;20069;-76
2023/01/03 02:49:01;;;;;;;8.85;4.68;;;6.80;91.30;;;;;;5136435;28;20024;-76
2023/01/03 02:51:38;;;;;;;10.38;4.55;;;6.80;91.20;;;;;;5136348;28;20035;-76
2023/01/03 02:54:07;;;;;;;10.70;4.97;;;6.70;91.10;;;;;;5135347;28;20107;-76
2023/01/03 02:56:56;;;;;;;10.77;5.57;;;6.70;91.00;;;;;;5136285;28;20041;-76
2023/01/03 02:59:34;;;;;;;9.32;4.95;;;6.60;91.10;;;;;;5135320;28;20098;-76
2023/01/03 03:02:01;;;;;;;11.50;4.63;;;6.60;91.20;;;;;;5135997;28;20091;-76
2023/01/03 03:04:28;;;;;;;10.32;5.35;;;6.60;91.20;;;;;;5136110;28;20087;-76
2023/01/03 03:07:07;;;;;;;11.35;5.53;;;6.50;91.10;;;;;;5135046;28;20031;-76
2023/01/03 03:13:11;;;;;;;10.88;5.15;;;6.50;91.30;;;;;;5135980;28;20031;-76
2023/01/03 03:15:04;;;;;;;12.25;5.38;;;6.40;91.30;;;;;;5136000;28;20552;-77
2023/01/03 03:17:30;;;;;;;11.25;4.95;;;6.30;91.50;;;;;;5135975;28;20024;-76
2023/01/03 03:25:51;;;;;;;9.63;5.22;;;6.20;92.30;;;;;;5135612;28;20131;-76
2023/01/03 03:28:34;;;;;;;15.95;5.32;;;6.20;92.30;;;;;;5135716;28;20024;-76
2023/01/03 03:31:11;;;;;;;13.43;4.80;;;6.20;92.20;;;;;;5135783;28;20027;-76
2023/01/03 03:33:50;;;;;;;11.13;6.10;;;6.10;92.70;;;;;;5135694;28;20023;-76
2023/01/03 03:36:26;;;;;;;13.82;5.53;;;6.10;92.60;;;;;;5135536;28;20201;-76
2023/01/03 03:38:52;;;;;;;10.98;5.40;;;6.10;92.70;;;;;;5135228;28;20038;-76
2023/01/03 03:47:40;;;;;;;9.23;4.57;;;5.90;93.40;;;;;;5135499;28;20035;-77
2023/01/03 03:50:29;;;;;;;8.23;4.43;;;6.00;93.50;;;;;;5135239;28;20031;-77
2023/01/03 03:53:03;;;;;;;10.48;4.63;;;5.90;93.50;;;;;;5135080;28;20462;-77
2023/01/03 03:55:49;;;;;;;11.20;5.80;;;5.90;93.30;;;;;;5135150;28;20088;-77
2023/01/03 03:58:26;;;;;;;9.40;5.30;;;5.90;93.50;;;;;;5120632;28;20077;-76
2023/01/03 04:00:53;;;;;;;8.95;4.72;;;5.90;93.50;;;;;;5135059;28;20045;-77
2023/01/03 04:03:20;;;;;;;10.52;4.78;;;5.90;93.40;;;;;;5134944;28;20027;-77
2023/01/03 04:05:51;;;;;;;10.80;5.07;;;5.90;93.90;;;;;;5134017;28;20046;-76
2023/01/03 04:08:16;;;;;;;9.77;4.07;;;5.80;93.40;;;;;;5134841;28;20020;-77
2023/01/03 04:10:42;;;;;;;11.77;5.38;;;5.80;93.60;;;;;;5133350;28;20035;-76
2023/01/03 04:13:08;;;;;;;14.60;5.88;;;5.80;93.50;;;;;;5134771;28;20079;-77
2023/01/03 04:15:33;;;;;;;9.20;4.93;;;5.80;93.50;;;;;;5134702;28;20054;-77
2023/01/03 04:18:01;;;;;;;9.80;5.13;;;5.90;93.50;;;;;;5134667;28;20027;-77
2023/01/03 04:20:28;;;;;;;9.50;4.88;;;5.80;93.40;;;;;;5133666;28;20020;-77
2023/01/03 04:22:53;;;;;;;9.75;4.90;;;5.90;93.40;;;;;;5134593;28;20051;-76
2023/01/03 04:25:19;;;;;;;13.48;4.80;;;5.90;93.40;;;;;;5133495;28;20067;-77
2023/01/03 04:27:44;;;;;;;11.38;5.07;;;5.90;93.20;;;;;;5133546;28;20034;-77
2023/01/03 04:30:11;;;;;;;10.40;5.13;;;5.90;93.10;;;;;;5134464;28;20051;-77
2023/01/03 04:32:37;;;;;;;13.48;5.10;;;5.90;93.10;;;;;;5134562;28;20016;-77
2023/01/03 04:35:03;;;;;;;8.15;4.68;;;5.90;93.20;;;;;;5133520;28;20087;-77
2023/01/03 04:37:28;;;;;;;8.77;4.93;;;5.80;93.10;;;;;;5134331;28;20049;-77
2023/01/03 04:39:54;;;;;;;11.65;5.05;;;5.80;93.10;;;;;;5134232;28;20103;-77
2023/01/03 04:45:05;;;;;;;8.60;4.82;;;5.80;93.10;;;;;;5134362;28;20114;-77
2023/01/03 04:47:30;;;;;;;9.63;4.88;;;5.80;92.90;;;;;;5134203;28;20027;-77
2023/01/03 04:49:56;;;;;;;10.15;4.68;;;5.80;92.90;;;;;;5134195;28;20054;-77
2023/01/03 04:52:21;;;;;;;10.57;4.80;;;5.80;92.70;;;;;;5133096;28;20023;-77
2023/01/03 04:54:47;;;;;;;12.80;5.22;;;5.80;92.70;;;;;;5133151;28;20032;-77
2023/01/03 04:57:13;;;;;;;10.98;5.07;;;5.80;92.50;;;;;;5133108;28;20029;-77
2023/01/03 04:59:38;;;;;;;11.93;5.30;;;5.80;92.60;;;;;;5133975;28;20066;-77
2023/01/03 05:02:04;;;;;;;8.20;4.72;;;5.80;92.50;;;;;;5134044;28;20024;-77
2023/01/03 05:04:29;;;;;;;11.77;5.05;;;5.80;92.60;;;;;;5133983;28;20031;-77
2023/01/03 05:06:55;;;;;;;11.27;5.07;;;5.90;92.70;;;;;;5133945;28;20027;-77
2023/01/03 05:09:22;;;;;;;9.90;5.10;;;5.90;92.90;;;;;;5133926;28;20027;-77
2023/01/03 05:11:47;;;;;;;13.20;5.53;;;5.90;92.90;;;;;;5133940;28;20019;-77
2023/01/03 05:14:13;;;;;;;12.45;5.72;;;6.00;92.90;;;;;;5133909;28;20104;-77
2023/01/03 05:16:39;;;;;;;12.52;5.38;;;6.00;92.80;;;;;;5132948;28;20058;-77
2023/01/03 05:19:04;;;;;;;14.80;5.05;;;6.00;92.70;;;;;;5132968;28;20490;-77
2023/01/03 05:27:01;;;;;;;7.95;4.82;;;6.10;92.60;;;;;;5138167;28;20059;-77
2023/01/03 05:29:28;;;;;;;12.85;4.75;;;6.10;92.60;;;;;;5137944;28;20016;-77
2023/01/03 05:31:55;;;;;;;9.80;4.32;;;6.10;92.60;;;;;;5137942;28;20047;-77
2023/01/03 05:34:20;;;;;;;8.77;4.60;;;6.10;92.60;;;;;;5137887;28;20049;-77
2023/01/03 05:36:46;;;;;;;14.88;4.88;;;6.10;92.70;;;;;;5137833;28;20032;-77
2023/01/03 05:39:12;;;;;;;9.35;4.53;;;6.10;92.70;;;;;;5137826;28;20048;-77
2023/01/03 05:44:22;;;;;;;14.07;5.18;;;6.10;92.90;;;;;;5137845;28;20034;-77
2023/01/03 05:46:48;;;;;;;8.23;4.00;;;6.10;93.20;;;;;;5136575;28;20032;-77
2023/01/03 05:49:13;;;;;;;10.95;4.40;;;6.10;93.70;;;;;;5136710;28;20047;-77
2023/01/03 05:51:39;;;;;;;10.55;5.00;;;6.10;93.40;;;;;;5137560;28;20023;-77
2023/01/03 05:54:05;;;;;;;10.18;4.57;;;6.10;93.50;;;;;;5137471;28;20039;-77
2023/01/03 05:56:31;;;;;;;8.77;4.38;;;6.20;93.40;;;;;;5137428;28;20030;-77
2023/01/03 05:58:57;;;;;;;14.57;5.28;;;6.20;93.60;;;;;;5137348;28;20019;-77
2023/01/03 06:01:27;;;;;;;9.70;4.85;;;6.10;93.60;;;;;;5136388;28;20047;-77
2023/01/03 06:03:53;;;;;;;10.57;4.85;;;6.20;93.50;;;;;;5136296;28;20020;-77
2023/01/03 06:06:18;;;;;;;10.30;4.65;;;6.20;93.40;;;;;;5137240;28;20031;-77
2023/01/03 06:08:44;;;;;;;11.65;4.22;;;6.20;93.40;;;;;;5119221;28;20053;-77
2023/01/03 06:11:13;;;;;;;10.90;4.78;;;6.20;93.40;;;;;;5136146;28;20028;-77
2023/01/03 06:13:39;;;;;;;11.15;4.95;;;6.20;93.40;;;;;;5137146;28;20019;-77
2023/01/03 06:18:56;;;;;;;10.13;4.07;;;6.20;93.10;;;;;;5137126;28;20038;-77
2023/01/03 06:21:22;;;;;;;10.18;4.93;;;6.20;93.30;;;;;;5136940;28;20463;-77
2023/01/03 06:23:47;;;;;;;8.20;4.50;;;6.30;93.10;;;;;;5136900;28;20081;-77
2023/01/03 06:26:18;;;;;;;8.05;4.22;;;6.30;93.10;;;;;;5136630;28;20058;-77
2023/01/03 06:28:44;;;;;;;9.35;4.55;;;6.30;93.00;;;;;;5136840;28;20031;-77
2023/01/03 06:31:10;;;;;;;8.80;4.38;;;6.30;92.90;;;;;;5136749;28;20016;-77
2023/01/03 06:33:36;;;;;;;9.90;4.45;;;6.30;92.90;;;;;;5136104;28;20129;-78
2023/01/03 06:36:07;;;;;;;8.18;4.45;;;6.30;92.70;;;;;;5136690;28;20015;-78
2023/01/03 06:38:33;;;;;;;10.50;4.32;;;6.20;92.50;;;;;;5135672;28;20023;-78
2023/01/03 06:40:59;;;;;;;11.45;4.63;;;6.20;92.50;;;;;;5136559;28;20024;-78
2023/01/03 06:43:25;;;;;;;10.05;4.65;;;6.30;92.60;;;;;;5136546;28;20019;-78
2023/01/03 06:54:07;;;;;;;11.45;4.88;;;6.10;92.40;;;;;;5136393;28;20039;-81
2023/01/03 06:56:33;;;;;;;10.73;5.15;;;6.10;92.60;;;;;;5136275;28;20016;-78
2023/01/03 06:58:59;;;;;;;10.10;4.47;;;6.10;92.60;;;;;;5136263;28;20056;-78
2023/01/03 07:01:25;;;;;;;11.13;4.75;;;6.10;92.70;;;;;;5136207;27;20034;-78
2023/01/03 07:03:51;;;;;;;10.73;5.30;;;6.20;92.80;;;;;;5136155;28;20024;-78
2023/01/03 07:06:17;;;;;;;8.55;4.65;;;6.10;92.90;;;;;;5135093;28;20574;-78
2023/01/03 07:08:42;;;;;;;8.27;4.63;;;6.10;93.00;;;;;;5135970;28;20039;-78
2023/01/03 07:11:08;;;;;;;9.57;4.90;;;6.00;93.30;;;;;;5136144;28;20035;-78
2023/01/03 07:16:19;;;;;;;9.60;4.63;;;6.10;93.40;;;;;;5120898;28;20092;-77
2023/01/03 07:18:45;;;;;;;12.48;5.05;;;6.10;93.60;;;;;;5135808;28;20026;-78
2023/01/03 07:21:11;;;;;;;12.77;5.18;;;6.10;93.60;;;;;;5135782;28;20031;-77
2023/01/03 07:23:37;;;;;;;10.02;4.70;;;6.10;93.70;;;;;;5135747;28;20023;-77
2023/01/03 07:26:03;;;;;;;7.82;4.35;;;6.20;93.60;;;;;;5135583;28;20063;-78
2023/01/03 07:28:28;;;;;;;12.95;4.82;;;6.20;93.70;;;;;;5135704;28;20027;-78
2023/01/03 07:31:00;;;;;;;12.18;4.65;;;6.20;93.90;;;;;;5135667;28;20027;-78
2023/01/03 07:33:25;;;;;;;12.45;4.85;;;6.20;94.00;;;;;;5135650;28;20075;-78
2023/01/03 07:35:51;;;;;;;11.70;4.97;;;6.20;93.90;;;;;;5135631;28;20023;-78
2023/01/03 07:38:17;;;;;;;8.77;4.15;;;6.30;93.90;;;;;;5134521;28;20029;-78
2023/01/03 07:40:42;;;;;;;11.73;4.55;;;6.30;93.90;;;;;;5135364;28;20038;-78
2023/01/03 07:45:54;;;;;;;10.32;4.88;;;6.40;94.00;;;;;;5134606;28;20038;-78
2023/01/03 07:48:20;;;;;;;10.43;4.63;;;6.40;94.00;;;;;;5134334;28;20035;-78
2023/01/03 07:50:45;;;;;;;11.93;5.28;;;6.50;94.00;;;;;;5135204;28;20028;-78
2023/01/03 07:53:15;;;;;;;10.88;4.70;;;6.50;94.00;;;;;;5135237;28;20032;-78
2023/01/03 07:55:44;;;;;;;12.38;4.93;;;6.40;94.20;;;;;;5134321;28;20055;-78
2023/01/03 07:58:10;;;;;;;12.30;4.63;;;6.40;94.30;;;;;;5134153;28;20027;-78
2023/01/03 08:00:36;;;;;;;14.13;5.50;;;6.40;94.30;;;;;;5134930;28;20027;-78
2023/01/03 08:03:01;;;;;;;10.40;4.90;;;6.40;94.30;;;;;;5134247;28;20037;-78
2023/01/03 08:05:27;;;;;;;9.98;5.72;;;6.40;94.30;;;;;;5134933;28;20056;-78
2023/01/03 08:07:53;;;;;;;11.48;5.18;;;6.40;94.30;;;;;;5134018;28;20027;-78
2023/01/03 08:13:17;;;;;;;10.43;4.07;;;6.50;94.80;;;;;;5134938;28;20058;-78
2023/01/03 08:15:54;;;;;;;13.80;5.47;;;6.50;95.50;;;;;;5134827;28;20036;-78
2023/01/03 08:18:26;;;;;;;7.82;4.50;;;6.60;95.60;;;;;;5133832;28;20039;-78
2023/01/03 08:20:54;;;;;;;10.60;4.50;;;6.60;95.80;;;;;;5133652;28;20062;-78
2023/01/03 08:23:20;;;;;;;9.85;4.40;;;6.70;96.00;;;;;;5117027;28;20023;-78
2023/01/03 08:25:46;;;;;;;9.75;4.95;;;6.70;96.10;;;;;;5134418;28;20054;-78
2023/01/03 08:28:12;;;;;;;10.45;4.90;;;6.70;96.10;;;;;;5133506;28;20095;-78
2023/01/03 08:30:43;;;;;;;9.25;4.47;;;6.70;96.20;;;;;;5134492;28;20020;-78
2023/01/03 08:33:11;;;;;;;12.25;5.63;;;6.80;96.20;;;;;;5134514;28;20056;-78
2023/01/03 08:35:40;;;;;;;8.63;4.22;;;6.80;96.20;;;;;;5134427;28;20026;-78
2023/01/03 08:38:10;;;;;;;10.88;5.00;;;6.80;96.00;;;;;;5134354;28;20024;-78
2023/01/03 08:40:39;;;;;;;10.30;4.78;;;6.80;96.30;;;;;;5134237;28;20023;-78
2023/01/03 08:43:05;;;;;;;10.70;4.90;;;6.90;96.00;;;;;;5134257;28;20025;-78
2023/01/03 08:45:31;;;;;;;9.75;4.90;;;6.90;96.00;;;;;;5134264;28;20085;-78
2023/01/03 08:48:00;;;;;;;9.25;4.88;;;7.00;96.10;;;;;;5133280;28;20055;-78
2023/01/03 08:50:26;;;;;;;8.85;4.25;;;7.00;96.20;;;;;;5134243;28;20039;-78
2023/01/03 08:52:52;;;;;;;12.13;5.20;;;7.00;96.30;;;;;;5134189;28;20031;-78
2023/01/03 08:55:18;;;;;;;9.25;5.03;;;7.10;96.20;;;;;;5134137;28;20027;-78
2023/01/03 08:57:44;;;;;;;11.35;5.22;;;7.10;96.20;;;;;;5133852;28;20091;-78
2023/01/03 09:00:10;;;;;;;11.73;4.95;;;7.10;96.30;;;;;;5133098;28;20028;-78
2023/01/03 09:02:35;;;;;;;12.75;5.25;;;7.20;96.40;;;;;;5133255;28;20083;-78
2023/01/03 09:05:01;;;;;;;10.40;5.10;;;7.20;96.50;;;;;;5134037;28;20032;-78
2023/01/03 09:07:27;;;;;;;14.70;5.28;;;7.20;96.50;;;;;;5133975;28;20023;-78
2023/01/03 09:09:52;;;;;;;12.05;4.88;;;7.20;96.60;;;;;;5133874;28;20024;-78
2023/01/03 09:12:18;;;;;;;10.70;5.20;;;7.20;96.70;;;;;;5132910;28;20066;-78
2023/01/03 09:14:43;;;;;;;12.88;5.50;;;7.20;96.80;;;;;;5133920;28;20028;-78
2023/01/03 09:17:09;;;;;;;9.15;4.60;;;7.20;96.90;;;;;;5133867;28;20028;-78
2023/01/03 09:19:35;;;;;;;11.13;5.03;;;7.30;96.90;;;;;;5132757;28;20036;-78
2023/01/03 09:22:01;;;;;;;11.82;4.47;;;7.30;96.90;;;;;;5133835;28;20028;-78
2023/01/03 09:24:27;;;;;;;12.00;4.43;;;7.30;96.80;;;;;;5132732;28;20048;-78
2023/01/03 09:26:52;;;;;;;14.05;5.78;;;7.30;96.90;;;;;;5116129;28;20033;-78
2023/01/03 09:29:18;;;;;;;10.23;4.65;;;7.40;97.00;;;;;;5133773;28;20032;-78
2023/01/03 09:31:43;;;;;;;11.52;5.03;;;7.40;97.00;;;;;;5133741;28;20031;-78
2023/01/03 09:34:09;;;;;;;11.95;4.72;;;7.50;96.90;;;;;;5132551;28;20077;-79
2023/01/03 09:36:37;;;;;;;9.05;4.25;;;7.40;96.90;;;;;;5133740;28;20038;-78
2023/01/03 09:39:03;;;;;;;10.77;4.38;;;7.40;96.90;;;;;;5115920;28;20028;-78
2023/01/03 09:41:29;;;;;;;11.77;4.65;;;7.50;96.90;;;;;;5133693;28;20043;-78
2023/01/03 09:44:04;;;;;;;11.60;4.43;;;7.50;97.00;;;;;;5133673;28;20027;-78
2023/01/03 09:46:32;;;;;;;12.60;4.70;;;7.50;96.90;;;;;;5133720;28;20027;-78
2023/01/03 09:48:59;;;;;;;12.45;5.25;;;7.50;96.90;;;;;;5132573;28;20095;-78
2023/01/03 10:05:56;;;;;;;9.52;4.70;;;7.60;97.10;;;;;;5133715;28;20031;-78
2023/01/03 10:08:33;;;;;;;14.35;5.13;;;7.60;97.10;;;;;;5133099;28;20023;-78
2023/01/03 10:11:22;;;;;;;11.93;5.72;;;7.70;97.20;;;;;;5136197;28;20041;-78
2023/01/03 10:14:02;;;;;;;12.07;4.90;;;7.70;97.10;;;;;;5137181;28;20073;-78
2023/01/03 10:16:58;;;;;;;13.65;6.10;;;7.70;97.00;;;;;;5137140;28;20459;-78
2023/01/03 10:19:54;;;;;;;10.18;5.38;;;7.80;97.10;;;;;;5136999;28;20031;-78
2023/01/03 10:22:25;;;;;;;13.48;6.30;;;7.80;97.10;;;;;;5137117;28;20047;-78
2023/01/03 10:25:04;;;;;;;11.65;4.60;;;7.80;97.10;;;;;;5136772;28;20085;-78
2023/01/03 10:27:34;;;;;;;11.10;4.80;;;7.80;97.00;;;;;;5137028;28;20035;-78
2023/01/03 10:30:04;;;;;;;15.38;5.80;;;7.80;97.00;;;;;;5135796;28;20385;-78
2023/01/03 10:32:48;;;;;;;13.35;5.38;;;7.80;97.00;;;;;;5135756;28;20454;-78
2023/01/03 10:35:34;;;;;;;10.68;4.93;;;7.90;96.80;;;;;;5136690;28;20054;-78
2023/01/03 10:38:01;;;;;;;13.80;5.78;;;7.90;96.90;;;;;;5136697;27;20019;-78
2023/01/03 10:40:45;;;;;;;13.65;5.40;;;8.00;96.90;;;;;;5136552;28;20031;-78
2023/01/03 10:43:20;;;;;;;14.15;5.63;;;8.00;96.90;;;;;;5136697;28;20045;-78
2023/01/03 10:45:56;;;;;;;10.60;4.32;;;8.00;96.90;;;;;;5136480;28;20032;-78
2023/01/03 10:48:22;;;;;;;10.80;5.22;;;8.00;96.70;;;;;;5136524;28;20034;-78
2023/01/03 10:50:49;;;;;;;12.30;4.82;;;8.00;96.80;;;;;;5136396;28;20031;-78
2023/01/03 10:53:18;;;;;;;9.90;4.65;;;8.10;96.70;;;;;;5136369;28;20024;-78
2023/01/03 10:55:51;;;;;;;11.68;4.03;;;8.10;96.70;;;;;;5135324;28;20020;-78
2023/01/03 10:58:27;;;;;;;9.25;4.30;;;8.10;96.70;;;;;;5136253;28;20019;-78
2023/01/03 11:01:08;;;;;;;11.07;4.95;;;8.10;96.60;;;;;;5136170;28;20035;-78
2023/01/03 11:03:36;;;;;;;10.68;4.85;;;8.20;96.70;;;;;;5135289;28;20015;-78
2023/01/03 11:06:02;;;;;;;14.40;4.38;;;8.20;96.70;;;;;;5135194;28;20012;-78
2023/01/03 11:08:46;;;;;;;9.35;4.35;;;8.20;96.60;;;;;;5136086;28;20020;-78
2023/01/03 11:11:33;;;;;;;12.00;4.70;;;8.20;96.60;;;;;;5135026;28;20028;-78
2023/01/03 11:14:26;;;;;;;10.68;4.70;;;8.30;96.60;;;;;;5135094;28;20031;-78
2023/01/03 11:17:03;;;;;;;9.77;4.45;;;8.30;96.70;;;;;;5136132;28;20035;-78
2023/01/03 11:19:32;;;;;;;11.48;4.65;;;8.30;96.50;;;;;;5134844;28;20035;-78
2023/01/03 11:22:31;;;;;;;8.18;4.03;;;8.40;96.50;;;;;;5134770;28;20020;-78
2023/01/03 11:25:08;;;;;;;8.55;3.95;;;8.40;96.70;;;;;;5108504;28;20074;-78
2023/01/03 11:28:07;;;;;;;12.07;4.82;;;8.50;96.60;;;;;;5135918;28;20024;-78
2023/01/03 11:30:45;;;;;;;8.60;4.03;;;8.50;96.60;;;;;;5135788;28;20053;-78
2023/01/03 11:33:35;;;;;;;9.85;4.32;;;8.50;96.60;;;;;;5135638;28;20069;-78
2023/01/03 11:36:19;;;;;;;8.60;3.50;;;8.50;96.50;;;;;;5135609;28;20039;-78
2023/01/03 11:39:04;;;;;;;10.68;4.07;;;8.60;96.50;;;;;;5135469;28;20023;-78
2023/01/03 11:41:58;;;;;;;9.20;3.42;;;8.60;96.30;;;;;;5134597;28;20024;-78
2023/01/03 11:44:47;;;;;;;9.38;4.03;;;8.60;96.00;;;;;;5135432;27;20023;-78
2023/01/03 11:47:58;;;;;;;9.85;3.47;;;8.70;96.40;;;;;;5135341;28;20030;-78
2023/01/03 11:50:48;;;;;;;7.88;3.58;;;8.70;95.70;;;;;;5131224;28;20050;-78
2023/01/03 11:53:37;;;;;;;8.27;3.50;;;8.80;95.60;;;;;;5135243;28;20027;-79
2023/01/03 11:56:14;;;;;;;7.35;3.05;;;8.80;95.70;;;;;;5135147;28;20030;-78
2023/01/03 11:59:05;;;;;;;9.43;3.88;;;8.80;95.60;;;;;;5134009;28;20446;-78
2023/01/03 12:01:51;;;;;;;11.32;3.58;;;8.90;95.50;;;;;;5134070;28;20024;-79
2023/01/03 12:04:25;;;;;;;7.97;3.58;;;8.90;95.20;;;;;;5134968;28;20046;-78
2023/01/03 12:07:10;;;;;;;11.20;4.03;;;8.90;95.40;;;;;;5134005;28;20019;-78
2023/01/03 12:09:54;;;;;;;6.22;2.58;;;8.90;95.30;;;;;;5134831;28;20398;-79
2023/01/03 12:12:52;;;;;;;10.63;3.58;;;8.90;95.10;;;;;;5134984;28;20107;-79
2023/01/03 12:15:46;;;;;;;9.18;3.88;;;8.90;95.20;;;;;;5118734;28;20096;-78
2023/01/03 12:18:19;;;;;;;8.75;3.75;;;8.90;95.10;;;;;;5130696;28;20047;-78
2023/01/03 12:20:54;;;;;;;7.32;3.50;;;9.00;95.10;;;;;;5134720;28;20051;-78
2023/01/03 12:23:41;;;;;;;10.32;3.47;;;9.00;95.10;;;;;;5134639;28;20012;-78
2023/01/03 12:26:11;;;;;;;6.55;3.28;;;9.00;94.90;;;;;;5134465;28;20048;-78
2023/01/03 12:28:42;;;;;;;13.52;6.35;;;9.00;94.90;;;;;;5134584;28;20098;-79
2023/01/03 12:31:20;;;;;;;9.50;4.28;;;9.00;94.90;;;;;;5133960;28;20015;-78
2023/01/03 12:34:08;;;;;;;7.82;4.00;;;9.10;94.90;;;;;;5134583;28;20027;-78
2023/01/03 12:36:33;;;;;;;11.38;3.90;;;9.10;94.70;;;;;;5134518;28;20019;-78
2023/01/03 12:39:17;;;;;;;8.95;3.80;;;9.10;94.80;;;;;;5133256;28;20038;-78
2023/01/03 12:41:54;;;;;;;8.00;3.90;;;9.10;94.60;;;;;;5133403;28;20087;-78
2023/01/03 12:44:35;;;;;;;11.73;4.25;;;9.10;94.70;;;;;;5134318;28;20079;-78
2023/01/03 12:47:02;;;;;;;10.75;4.80;;;9.20;94.80;;;;;;5134330;28;20039;-78
2023/01/03 12:49:40;;;;;;;11.23;4.65;;;9.30;94.70;;;;;;5133334;28;20027;-78
2023/01/03 12:52:11;;;;;;;8.15;4.75;;;9.30;94.50;;;;;;5134169;28;20051;-78
2023/01/03 12:54:42;;;;;;;9.20;4.85;;;9.30;94.30;;;;;;5134161;28;20031;-77
2023/01/03 12:57:45;;;;;;;10.77;5.40;;;9.40;94.30;;;;;;5133206;28;20028;-78
2023/01/03 13:00:42;;;;;;;11.85;5.13;;;9.40;94.20;;;;;;5132944;28;20031;-78
2023/01/03 13:03:26;;;;;;;9.27;5.30;;;9.40;93.90;;;;;;5134087;28;20016;-77
2023/01/03 13:06:02;;;;;;;9.90;4.78;;;9.40;93.90;;;;;;5134064;28;20035;-78
2023/01/03 13:08:44;;;;;;;11.32;4.80;;;9.40;93.80;;;;;;5133963;28;20020;-78
2023/01/03 13:11:37;;;;;;;12.50;5.55;;;9.40;93.60;;;;;;5134056;28;20041;-77
2023/01/03 13:14:20;;;;;;;8.75;4.60;;;9.40;93.20;;;;;;5134023;28;20016;-80
2023/01/03 13:16:51;;;;;;;9.52;4.88;;;9.40;93.50;;;;;;5134090;28;20031;-78
2023/01/03 13:19:20;;;;;;;10.52;4.90;;;9.30;93.50;;;;;;5133875;28;20540;-78
2023/01/03 13:21:52;;;;;;;9.88;4.63;;;9.30;93.60;;;;;;5132780;28;20030;-78
2023/01/03 13:24:44;;;;;;;12.47;5.60;;;9.20;93.50;;;;;;5133705;28;20028;-78
2023/01/03 13:27:16;;;;;;;8.27;4.72;;;9.30;93.60;;;;;;5133821;28;20332;-78
2023/01/03 13:29:47;;;;;;;9.95;4.80;;;9.30;93.50;;;;;;5133881;28;20043;-78
2023/01/03 13:32:27;;;;;;;7.57;3.55;;;9.30;93.50;;;;;;5132786;28;20402;-78
2023/01/03 13:34:53;;;;;;;7.85;4.38;;;9.20;93.40;;;;;;5133834;28;20023;-78
2023/01/03 13:37:21;;;;;;;9.07;3.92;;;9.20;93.30;;;;;;5133705;28;20098;-78
2023/01/03 13:39:49;;;;;;;9.95;4.43;;;9.20;93.20;;;;;;5132605;28;20061;-79
2023/01/03 13:42:41;;;;;;;11.88;4.68;;;9.20;93.30;;;;;;5133658;28;20024;-78
2023/01/03 13:45:22;;;;;;;7.40;3.60;;;9.20;93.20;;;;;;5133511;28;20031;-78
2023/01/03 13:47:50;;;;;;;6.95;3.15;;;9.20;93.00;;;;;;5137860;28;20027;-78
2023/01/03 13:50:22;;;;;;;7.22;3.78;;;9.20;92.30;;;;;;5137608;28;20033;-78
2023/01/03 13:52:57;;;;;;;5.28;3.13;;;9.30;92.40;;;;;;5137569;28;20023;-78
2023/01/03 13:55:43;;;;;;;5.60;2.90;;;9.30;92.00;;;;;;5137657;27;20015;-78
2023/01/03 13:58:45;;;;;;;4.00;1.88;;;9.30;91.40;;;;;;5136690;28;20061;-78
2023/01/03 14:01:43;;;;;;;5.97;2.60;;;9.30;91.10;;;;;;5136465;28;20028;-78
2023/01/03 14:04:21;;;;;;;4.30;2.08;;;9.40;91.30;;;;;;5129795;28;20085;-78
2023/01/03 14:06:56;;;;;;;3.90;1.80;;;9.60;90.50;;;;;;5137335;28;20020;-78
2023/01/03 14:09:46;;;;;;;5.32;2.47;;;9.60;89.50;;;;;;5137217;28;20035;-78
2023/01/03 14:12:26;;;;;;;3.55;2.20;;;9.50;90.10;;;;;;5136218;28;20102;-78
2023/01/03 14:14:57;;;;;;;6.75;2.25;;;9.50;90.10;;;;;;5137228;28;20092;-78
2023/01/03 14:17:35;;;;;;;3.95;2.55;;;9.50;90.20;;;;;;5137167;28;20045;-78
2023/01/03 14:20:12;;;;;;;3.85;1.63;;;9.50;90.10;;;;;;5137054;28;20019;-78
2023/01/03 14:22:43;;;;;;;4.82;1.92;;;9.50;90.70;;;;;;5135944;28;20031;-78
2023/01/03 14:25:32;;;;;;;4.75;2.05;;;9.50;90.10;;;;;;5136835;28;20103;-77
2023/01/03 14:28:23;;;;;;;5.13;2.30;;;9.50;90.10;;;;;;5137009;28;20019;-78